Aviation Digital Data Service (ADDS)

Output produced by METARs form (1037 UTC 18 June 2019)
found at http://www.aviationweather.gov/metar/data/
 
METAR text: SABE 181000Z 27005KT 200V310 5000 -TSRA SCT007 BKN012 FEW050CB 11/11 Q1011 NOSIG
Conditions at: SABE (AEROPARQUE(CIV/M, AR) observed 1000 UTC 18 June 2019
Temperature: 11.0°C (52°F)
Dewpoint: 11.0°C (52°F) [RH = 100%]
Pressure (altimeter): 29.85 inches Hg (1011.0 mb)
Winds: from the W (270 degrees) at 6 MPH (5 knots; 2.6 m/s)
Visibility: 3 miles ( 5 km)
Ceiling: 1200 feet AGL
Clouds: scattered clouds at 700 feet AGL
broken clouds at 1200 feet AGL
few clouds at 5000 feet AGL
Weather: -TSRA  (light rain associated with thunderstorm(s))

METAR text: SABE 180928Z 28005KT 3000 -TSRA SCT006 BKN011 FEW050CB 11/11 Q1011 NOSIG
Conditions at: SABE (AEROPARQUE(CIV/M, AR) observed 0928 UTC 18 June 2019
Temperature: 11.0°C (52°F)
Dewpoint: 11.0°C (52°F) [RH = 100%]
Pressure (altimeter): 29.85 inches Hg (1011.0 mb)
Winds: from the W (280 degrees) at 6 MPH (5 knots; 2.6 m/s)
Visibility: 1.86 miles (2.99 km)
Ceiling: 1100 feet AGL
Clouds: scattered clouds at 600 feet AGL
broken clouds at 1100 feet AGL
few clouds at 5000 feet AGL
Weather: -TSRA  (light rain associated with thunderstorm(s))

METAR text: SABE 180906Z 27005KT 4400 -TSRA SCT006 BKN011 FEW050CB 11/11 Q1011 NOSIG
Conditions at: SABE (AEROPARQUE(CIV/M, AR) observed 0906 UTC 18 June 2019
Temperature: 11.0°C (52°F)
Dewpoint: 11.0°C (52°F) [RH = 100%]
Pressure (altimeter): 29.85 inches Hg (1011.0 mb)
Winds: from the W (270 degrees) at 6 MPH (5 knots; 2.6 m/s)
Visibility: 2.73 miles (4.39 km)
Ceiling: 1100 feet AGL
Clouds: scattered clouds at 600 feet AGL
broken clouds at 1100 feet AGL
few clouds at 5000 feet AGL
Weather: -TSRA  (light rain associated with thunderstorm(s))

METAR text: SABE 180900Z 27005KT 6000 -TSRA SCT006 BKN011 FEW050CB 11/11 Q1011 NOSIG
Conditions at: SABE (AEROPARQUE(CIV/M, AR) observed 0900 UTC 18 June 2019
Temperature: 11.0°C (52°F)
Dewpoint: 11.0°C (52°F) [RH = 100%]
Pressure (altimeter): 29.85 inches Hg (1011.0 mb)
Winds: from the W (270 degrees) at 6 MPH (5 knots; 2.6 m/s)
Visibility: 4 miles ( 6 km)
Ceiling: 1100 feet AGL
Clouds: scattered clouds at 600 feet AGL
broken clouds at 1100 feet AGL
few clouds at 5000 feet AGL
Weather: -TSRA  (light rain associated with thunderstorm(s))

METAR text: SABE 180837Z 28007KT 1500 TSRA SCT007 BKN012 FEW045CB 12/11 Q1011 NOSIG
Conditions at: SABE (AEROPARQUE(CIV/M, AR) observed 0837 UTC 18 June 2019
Temperature: 12.0°C (54°F)
Dewpoint: 11.0°C (52°F) [RH = 94%]
Pressure (altimeter): 29.85 inches Hg (1011.0 mb)
Winds: from the W (280 degrees) at 8 MPH (7 knots; 3.6 m/s)
Visibility: 0.93 miles (1.50 km)
Ceiling: 1200 feet AGL
Clouds: scattered clouds at 700 feet AGL
broken clouds at 1200 feet AGL
few clouds at 4500 feet AGL
Weather: TSRA  (rain associated with thunderstorm(s))

METAR text: SABE 180833Z 28007KT 3000 -TSRA BKN007 BKN012 FEW045CB 12/11 Q1010 NOSIG
Conditions at: SABE (AEROPARQUE(CIV/M, AR) observed 0833 UTC 18 June 2019
Temperature: 12.0°C (54°F)
Dewpoint: 11.0°C (52°F) [RH = 94%]
Pressure (altimeter): 29.82 inches Hg (1010.0 mb)
Winds: from the W (280 degrees) at 8 MPH (7 knots; 3.6 m/s)
Visibility: 1.86 miles (2.99 km)
Ceiling: 700 feet AGL
Clouds: broken clouds at 700 feet AGL
broken clouds at 1200 feet AGL
few clouds at 4500 feet AGL
Weather: -TSRA  (light rain associated with thunderstorm(s))

METAR text: SABE 180815Z 26003KT 210V310 5000 -TSRA BKN006 SCT020 FEW040CB 12/11 Q1011 NOSIG
Conditions at: SABE (AEROPARQUE(CIV/M, AR) observed 0815 UTC 18 June 2019
Temperature: 12.0°C (54°F)
Dewpoint: 11.0°C (52°F) [RH = 94%]
Pressure (altimeter): 29.85 inches Hg (1011.0 mb)
Winds: from the W (260 degrees) at 3 MPH (3 knots; 1.5 m/s)
Visibility: 3 miles ( 5 km)
Ceiling: 600 feet AGL
Clouds: broken clouds at 600 feet AGL
scattered clouds at 2000 feet AGL
few clouds at 4000 feet AGL
Weather: -TSRA  (light rain associated with thunderstorm(s))

METAR text: SABE 180800Z 25005KT 220V310 2000 TSRA BR BKN006 SCT040CB 12/11 Q1011 2000 TSRA BKN005 OVC015 FEW040CB
Conditions at: SABE (AEROPARQUE(CIV/M, AR) observed 0800 UTC 18 June 2019
Temperature: 12.0°C (54°F)
Dewpoint: 11.0°C (52°F) [RH = 94%]
Pressure (altimeter): 29.85 inches Hg (1011.0 mb)
Winds: from the WSW (250 degrees) at 6 MPH (5 knots; 2.6 m/s)
Visibility: 1.24 miles (2.00 km)
Ceiling: 600 feet AGL
Clouds: broken clouds at 600 feet AGL
scattered clouds at 4000 feet AGL
broken clouds at 500 feet AGL
overcast cloud deck at 1500 feet AGL
Weather: TSRA BR TSRA  (rain associated with thunderstorm(s), mist, rain associated with thunderstorm(s))

METAR text: SABE 180751Z 28005KT 1500 TSRA BR SCT006 BKN010 FEW040CB 12/11 Q1012 NOSIG
Conditions at: SABE (AEROPARQUE(CIV/M, AR) observed 0751 UTC 18 June 2019
Temperature: 12.0°C (54°F)
Dewpoint: 11.0°C (52°F) [RH = 94%]
Pressure (altimeter): 29.88 inches Hg (1012.0 mb)
Winds: from the W (280 degrees) at 6 MPH (5 knots; 2.6 m/s)
Visibility: 0.93 miles (1.50 km)
Ceiling: 1000 feet AGL
Clouds: scattered clouds at 600 feet AGL
broken clouds at 1000 feet AGL
few clouds at 4000 feet AGL
Weather: TSRA BR  (rain associated with thunderstorm(s), mist)

METAR text: SABE 180740Z 28006KT 210V310 3000 -TSRA BR SCT006 BKN015 FEW045CB 12/11 Q1012 NOSIG
Conditions at: SABE (AEROPARQUE(CIV/M, AR) observed 0740 UTC 18 June 2019
Temperature: 12.0°C (54°F)
Dewpoint: 11.0°C (52°F) [RH = 94%]
Pressure (altimeter): 29.88 inches Hg (1012.0 mb)
Winds: from the W (280 degrees) at 7 MPH (6 knots; 3.1 m/s)
Visibility: 1.86 miles (2.99 km)
Ceiling: 1500 feet AGL
Clouds: scattered clouds at 600 feet AGL
broken clouds at 1500 feet AGL
few clouds at 4500 feet AGL
Weather: -TSRA BR  (light rain associated with thunderstorm(s), mist)

METAR text: SABE 180718Z 28005KT 1500 TSRA BR SCT006 BKN013 FEW040CB 12/12 Q1011 NOSIG
Conditions at: SABE (AEROPARQUE(CIV/M, AR) observed 0718 UTC 18 June 2019
Temperature: 12.0°C (54°F)
Dewpoint: 12.0°C (54°F) [RH = 100%]
Pressure (altimeter): 29.85 inches Hg (1011.0 mb)
Winds: from the W (280 degrees) at 6 MPH (5 knots; 2.6 m/s)
Visibility: 0.93 miles (1.50 km)
Ceiling: 1300 feet AGL
Clouds: scattered clouds at 600 feet AGL
broken clouds at 1300 feet AGL
few clouds at 4000 feet AGL
Weather: TSRA BR  (rain associated with thunderstorm(s), mist)

METAR text: SABE 180715Z 25006KT 210V310 3000 -TSRA BR SCT006 BKN030 FEW045CB 12/12 Q1011 NOSIG
Conditions at: SABE (AEROPARQUE(CIV/M, AR) observed 0715 UTC 18 June 2019
Temperature: 12.0°C (54°F)
Dewpoint: 12.0°C (54°F) [RH = 100%]
Pressure (altimeter): 29.85 inches Hg (1011.0 mb)
Winds: from the WSW (250 degrees) at 7 MPH (6 knots; 3.1 m/s)
Visibility: 1.86 miles (2.99 km)
Ceiling: 3000 feet AGL
Clouds: scattered clouds at 600 feet AGL
broken clouds at 3000 feet AGL
few clouds at 4500 feet AGL
Weather: -TSRA BR  (light rain associated with thunderstorm(s), mist)

METAR text: SABE 180700Z 27005KT 210V310 1500 TSRA BR BKN006 FEW040CB 12/12 Q1012 2000 TSRA BKN005 OVC015 FEW040CB
Conditions at: SABE (AEROPARQUE(CIV/M, AR) observed 0700 UTC 18 June 2019
Temperature: 12.0°C (54°F)
Dewpoint: 12.0°C (54°F) [RH = 100%]
Pressure (altimeter): 29.88 inches Hg (1012.0 mb)
Winds: from the W (270 degrees) at 6 MPH (5 knots; 2.6 m/s)
Visibility: 0.93 miles (1.50 km)
Ceiling: 600 feet AGL
Clouds: broken clouds at 600 feet AGL
few clouds at 4000 feet AGL
broken clouds at 500 feet AGL
overcast cloud deck at 1500 feet AGL
Weather: TSRA BR TSRA  (rain associated with thunderstorm(s), mist, rain associated with thunderstorm(s))

METAR text: SABE 180649Z 28006KT 1500 TSRA BKN006 BKN011 FEW040CB 12/12 Q1012 NOSIG
Conditions at: SABE (AEROPARQUE(CIV/M, AR) observed 0649 UTC 18 June 2019
Temperature: 12.0°C (54°F)
Dewpoint: 12.0°C (54°F) [RH = 100%]
Pressure (altimeter): 29.88 inches Hg (1012.0 mb)
Winds: from the W (280 degrees) at 7 MPH (6 knots; 3.1 m/s)
Visibility: 0.93 miles (1.50 km)
Ceiling: 600 feet AGL
Clouds: broken clouds at 600 feet AGL
broken clouds at 1100 feet AGL
few clouds at 4000 feet AGL
Weather: TSRA  (rain associated with thunderstorm(s))

METAR text: SABE 180641Z 27006KT 3000 -TSRA BKN007 BKN012 FEW045CB 12/12 Q1011 NOSIG
Conditions at: SABE (AEROPARQUE(CIV/M, AR) observed 0641 UTC 18 June 2019
Temperature: 12.0°C (54°F)
Dewpoint: 12.0°C (54°F) [RH = 100%]
Pressure (altimeter): 29.85 inches Hg (1011.0 mb)
Winds: from the W (270 degrees) at 7 MPH (6 knots; 3.1 m/s)
Visibility: 1.86 miles (2.99 km)
Ceiling: 700 feet AGL
Clouds: broken clouds at 700 feet AGL
broken clouds at 1200 feet AGL
few clouds at 4500 feet AGL
Weather: -TSRA  (light rain associated with thunderstorm(s))

METAR text: SABE 180625Z 28007KT 5000 -TSRA BKN006 BKN015 FEW050CB 13/12 Q1012 NOSIG
Conditions at: SABE (AEROPARQUE(CIV/M, AR) observed 0625 UTC 18 June 2019
Temperature: 13.0°C (55°F)
Dewpoint: 12.0°C (54°F) [RH = 94%]
Pressure (altimeter): 29.88 inches Hg (1012.0 mb)
Winds: from the W (280 degrees) at 8 MPH (7 knots; 3.6 m/s)
Visibility: 3 miles ( 5 km)
Ceiling: 600 feet AGL
Clouds: broken clouds at 600 feet AGL
broken clouds at 1500 feet AGL
few clouds at 5000 feet AGL
Weather: -TSRA  (light rain associated with thunderstorm(s))

METAR text: SABE 180606Z 30007KT 1500 TSRA BKN006 FEW040CB 13/13 Q1012
Conditions at: SABE (AEROPARQUE(CIV/M, AR) observed 0606 UTC 18 June 2019
Temperature: 13.0°C (55°F)
Dewpoint: 13.0°C (55°F) [RH = 100%]
Pressure (altimeter): 29.88 inches Hg (1012.0 mb)
Winds: from the WNW (300 degrees) at 8 MPH (7 knots; 3.6 m/s)
Visibility: 0.93 miles (1.50 km)
Ceiling: 600 feet AGL
Clouds: broken clouds at 600 feet AGL
few clouds at 4000 feet AGL
Weather: TSRA  (rain associated with thunderstorm(s))

METAR text: SABE 180600Z 25005KT 210V310 5000 -TSRA BKN007 FEW050CB 14/13 Q1011 2000 TSRA BKN005 OVC015 FEW040CB
Conditions at: SABE (AEROPARQUE(CIV/M, AR) observed 0600 UTC 18 June 2019
Temperature: 14.0°C (57°F)
Dewpoint: 13.0°C (55°F) [RH = 94%]
Pressure (altimeter): 29.85 inches Hg (1011.0 mb)
Winds: from the WSW (250 degrees) at 6 MPH (5 knots; 2.6 m/s)
Visibility: 3 miles ( 5 km)
Ceiling: 700 feet AGL
Clouds: broken clouds at 700 feet AGL
few clouds at 5000 feet AGL
broken clouds at 500 feet AGL
overcast cloud deck at 1500 feet AGL
Weather: -TSRA TSRA  (light rain associated with thunderstorm(s), rain associated with thunderstorm(s))

METAR text: SABE 180540Z 32007KT 3000 -TSRA BKN007 FEW045CB 14/13 Q1012 NOSIG
Conditions at: SABE (AEROPARQUE(CIV/M, AR) observed 0540 UTC 18 June 2019
Temperature: 14.0°C (57°F)
Dewpoint: 13.0°C (55°F) [RH = 94%]
Pressure (altimeter): 29.88 inches Hg (1012.0 mb)
Winds: from the NW (320 degrees) at 8 MPH (7 knots; 3.6 m/s)
Visibility: 1.86 miles (2.99 km)
Ceiling: 700 feet AGL
Clouds: broken clouds at 700 feet AGL
few clouds at 4500 feet AGL
Weather: -TSRA  (light rain associated with thunderstorm(s))

METAR text: SABE 180530Z 32008KT 8000 -TSRA SCT008 BKN015 FEW050CB 14/13 Q1012 NOSIG
Conditions at: SABE (AEROPARQUE(CIV/M, AR) observed 0530 UTC 18 June 2019
Temperature: 14.0°C (57°F)
Dewpoint: 13.0°C (55°F) [RH = 94%]
Pressure (altimeter): 29.88 inches Hg (1012.0 mb)
Winds: from the NW (320 degrees) at 9 MPH (8 knots; 4.1 m/s)
Visibility: 5 miles ( 8 km)
Ceiling: 1500 feet AGL
Clouds: scattered clouds at 800 feet AGL
broken clouds at 1500 feet AGL
few clouds at 5000 feet AGL
Weather: -TSRA  (light rain associated with thunderstorm(s))

METAR text: SABE 180513Z 33003KT 3000 -TSRA FEW005 BKN010 FEW050CB 14/13 Q1012 NOSIG
Conditions at: SABE (AEROPARQUE(CIV/M, AR) observed 0513 UTC 18 June 2019
Temperature: 14.0°C (57°F)
Dewpoint: 13.0°C (55°F) [RH = 94%]
Pressure (altimeter): 29.88 inches Hg (1012.0 mb)
Winds: from the NNW (330 degrees) at 3 MPH (3 knots; 1.5 m/s)
Visibility: 1.86 miles (2.99 km)
Ceiling: 1000 feet AGL
Clouds: few clouds at 500 feet AGL
broken clouds at 1000 feet AGL
few clouds at 5000 feet AGL
Weather: -TSRA  (light rain associated with thunderstorm(s))

METAR text: SABE 180500Z 32005KT 250V330 1500 -TSRA BKN007 FEW050CB 14/13 Q1012 2000 TSRA OVC005 FEW050CB
Conditions at: SABE (AEROPARQUE(CIV/M, AR) observed 0500 UTC 18 June 2019
Temperature: 14.0°C (57°F)
Dewpoint: 13.0°C (55°F) [RH = 94%]
Pressure (altimeter): 29.88 inches Hg (1012.0 mb)
Winds: from the NW (320 degrees) at 6 MPH (5 knots; 2.6 m/s)
Visibility: 0.93 miles (1.50 km)
Ceiling: 700 feet AGL
Clouds: broken clouds at 700 feet AGL
few clouds at 5000 feet AGL
overcast cloud deck at 500 feet AGL
few clouds at 5000 feet AGL
Weather: -TSRA TSRA  (light rain associated with thunderstorm(s), rain associated with thunderstorm(s))

METAR text: SABE 180446Z 30004KT 7000 -TSRA BKN007 FEW050CB 14/13 Q1012 NOSIG
Conditions at: SABE (AEROPARQUE(CIV/M, AR) observed 0446 UTC 18 June 2019
Temperature: 14.0°C (57°F)
Dewpoint: 13.0°C (55°F) [RH = 94%]
Pressure (altimeter): 29.88 inches Hg (1012.0 mb)
Winds: from the WNW (300 degrees) at 5 MPH (4 knots; 2.1 m/s)
Visibility: 4 miles ( 7 km)
Ceiling: 700 feet AGL
Clouds: broken clouds at 700 feet AGL
few clouds at 5000 feet AGL
Weather: -TSRA  (light rain associated with thunderstorm(s))

METAR text: SABE 180433Z 36005KT 3000 -TSRABR BKN006 FEW045CB 14/13 Q1012 NOSIG
Conditions at: SABE (AEROPARQUE(CIV/M, AR) observed 0433 UTC 18 June 2019
Temperature: 14.0°C (57°F)
Dewpoint: 13.0°C (55°F) [RH = 94%]
Pressure (altimeter): 29.88 inches Hg (1012.0 mb)
Winds: from the N (360 degrees) at 6 MPH (5 knots; 2.6 m/s)
Visibility: 1.86 miles (2.99 km)
Ceiling: 600 feet AGL
Clouds: broken clouds at 600 feet AGL
few clouds at 4500 feet AGL
Weather: -TSRA BR  (light rain associated with thunderstorm(s), mist)

METAR text: SABE 180411Z 34007KT 5000 -TSRA BR BKN005 FEW045CB 14/14 Q1013 2000 TSRA OVC005 FEW050CB
Conditions at: SABE (AEROPARQUE(CIV/M, AR) observed 0411 UTC 18 June 2019
Temperature: 14.0°C (57°F)
Dewpoint: 14.0°C (57°F) [RH = 100%]
Pressure (altimeter): 29.91 inches Hg (1013.0 mb)
Winds: from the NNW (340 degrees) at 8 MPH (7 knots; 3.6 m/s)
Visibility: 3 miles ( 5 km)
Ceiling: 500 feet AGL
Clouds: broken clouds at 500 feet AGL
few clouds at 4500 feet AGL
overcast cloud deck at 500 feet AGL
few clouds at 5000 feet AGL
Weather: -TSRA BR TSRA  (light rain associated with thunderstorm(s), mist, rain associated with thunderstorm(s))

METAR text: SABE 180400Z 34007KT 1000 R13/P2000 TSRA BR BKN006 FEW045CB 14/14 Q1013 2000 TSRA OVC005 FEW050CB
Conditions at: SABE (AEROPARQUE(CIV/M, AR) observed 0400 UTC 18 June 2019
Temperature: 14.0°C (57°F)
Dewpoint: 14.0°C (57°F) [RH = 100%]
Pressure (altimeter): 29.91 inches Hg (1013.0 mb)
Winds: from the NNW (340 degrees) at 8 MPH (7 knots; 3.6 m/s)
Visibility: 0.62 miles (1.00 km)
Ceiling: 600 feet AGL
Clouds: broken clouds at 600 feet AGL
few clouds at 4500 feet AGL
overcast cloud deck at 500 feet AGL
few clouds at 5000 feet AGL
Weather: TSRA TSRA BR  (rain associated with thunderstorm(s), rain associated with thunderstorm(s), mist)

METAR text: SABE 180554Z 36006KT 1000 R13/P2000 TSRA BR BKN006 FEW045CB 14/14 Q1013 NOSIG
Conditions at: SABE (AEROPARQUE(CIV/M, AR) observed 0358 UTC 18 June 2019
Temperature: 14.0°C (57°F)
Dewpoint: 14.0°C (57°F) [RH = 100%]
Pressure (altimeter): 29.91 inches Hg (1013.0 mb)
Winds: from the N (360 degrees) at 7 MPH (6 knots; 3.1 m/s)
Visibility: 0.62 miles (1.00 km)
Ceiling: 600 feet AGL
Clouds: broken clouds at 600 feet AGL
few clouds at 4500 feet AGL
Weather: TSRA BR  (rain associated with thunderstorm(s), mist)

METAR text: SABE 180354Z 36006KT 1000 R13/P2000 TSRA BR BKN006 FEW045CB 14/14 Q1013 NOSIG
Conditions at: SABE (AEROPARQUE(CIV/M, AR) observed 0354 UTC 18 June 2019
Temperature: 14.0°C (57°F)
Dewpoint: 14.0°C (57°F) [RH = 100%]
Pressure (altimeter): 29.91 inches Hg (1013.0 mb)
Winds: from the N (360 degrees) at 7 MPH (6 knots; 3.1 m/s)
Visibility: 0.62 miles (1.00 km)
Ceiling: 600 feet AGL
Clouds: broken clouds at 600 feet AGL
few clouds at 4500 feet AGL
Weather: TSRA BR  (rain associated with thunderstorm(s), mist)

METAR text: SABE 180347Z 36007KT 3000 -TSRA BKN006 FEW050CB 14/14 Q1013 NOSIG
Conditions at: SABE (AEROPARQUE(CIV/M, AR) observed 0347 UTC 18 June 2019
Temperature: 14.0°C (57°F)
Dewpoint: 14.0°C (57°F) [RH = 100%]
Pressure (altimeter): 29.91 inches Hg (1013.0 mb)
Winds: from the N (360 degrees) at 8 MPH (7 knots; 3.6 m/s)
Visibility: 1.86 miles (2.99 km)
Ceiling: 600 feet AGL
Clouds: broken clouds at 600 feet AGL
few clouds at 5000 feet AGL
Weather: -TSRA  (light rain associated with thunderstorm(s))

METAR text: SABE 180342Z 34007KT 5000 -TSRA BKN006 FEW050CB 14/14 Q1013 NOSIG
Conditions at: SABE (AEROPARQUE(CIV/M, AR) observed 0342 UTC 18 June 2019
Temperature: 14.0°C (57°F)
Dewpoint: 14.0°C (57°F) [RH = 100%]
Pressure (altimeter): 29.91 inches Hg (1013.0 mb)
Winds: from the NNW (340 degrees) at 8 MPH (7 knots; 3.6 m/s)
Visibility: 3 miles ( 5 km)
Ceiling: 600 feet AGL
Clouds: broken clouds at 600 feet AGL
few clouds at 5000 feet AGL
Weather: -TSRA  (light rain associated with thunderstorm(s))

METAR text: SABE 180334Z 34006KT 5000 VCTS -RA BKN006 FEW050CB SCT060 15/14 Q1013 NOSIG
Conditions at: SABE (AEROPARQUE(CIV/M, AR) observed 0334 UTC 18 June 2019
Temperature: 15.0°C (59°F)
Dewpoint: 14.0°C (57°F) [RH = 94%]
Pressure (altimeter): 29.91 inches Hg (1013.0 mb)
Winds: from the NNW (340 degrees) at 7 MPH (6 knots; 3.1 m/s)
Visibility: 3 miles ( 5 km)
Ceiling: 600 feet AGL
Clouds: broken clouds at 600 feet AGL
few clouds at 5000 feet AGL
scattered clouds at 6000 feet AGL
Weather: VCTS -RA  (thunderstorm in vicinity, light rain)

METAR text: SABE 180300Z 04004KT 350V050 7000 -RA SCT008 BKN012 14/14 Q1014 RETS TEMPO 1500 TSRA BKN005 OVC015 FEW050C B
Conditions at: SABE (AEROPARQUE(CIV/M, AR) observed 0300 UTC 18 June 2019
Temperature: 14.0°C (57°F)
Dewpoint: 14.0°C (57°F) [RH = 100%]
Pressure (altimeter): 29.94 inches Hg (1014.0 mb)
Winds: from the NE (40 degrees) at 5 MPH (4 knots; 2.1 m/s)
Visibility: 4 miles ( 7 km)
Ceiling: 1200 feet AGL
Clouds: scattered clouds at 800 feet AGL
broken clouds at 1200 feet AGL
Weather: -RA  (light rain)

METAR text: SABE 180229Z 05003KT 7000 -TSRA FEW005 BKN015 FEW050CB 14/13 Q1013 TEMPO 1500 TSRA BKN005 OVC015 FEW050CB
Conditions at: SABE (AEROPARQUE(CIV/M, AR) observed 0229 UTC 18 June 2019
Temperature: 14.0°C (57°F)
Dewpoint: 13.0°C (55°F) [RH = 94%]
Pressure (altimeter): 29.91 inches Hg (1013.0 mb)
Winds: from the NE (50 degrees) at 3 MPH (3 knots; 1.5 m/s)
Visibility: 4 miles ( 7 km)
Ceiling: 1500 feet AGL
Clouds: few clouds at 500 feet AGL
broken clouds at 1500 feet AGL
few clouds at 5000 feet AGL
Weather: -TSRA  (light rain associated with thunderstorm(s))

METAR text: SABE 180228Z 05003KT 9000 -RA FEW005 BKN015 14/13 Q1013 TEMPO 1500 TSRA BKN005 OVC015 FEW050CB
Conditions at: SABE (AEROPARQUE(CIV/M, AR) observed 0228 UTC 18 June 2019
Temperature: 14.0°C (57°F)
Dewpoint: 13.0°C (55°F) [RH = 94%]
Pressure (altimeter): 29.91 inches Hg (1013.0 mb)
Winds: from the NE (50 degrees) at 3 MPH (3 knots; 1.5 m/s)
Visibility: 6 miles ( 9 km)
Ceiling: 1500 feet AGL
Clouds: few clouds at 500 feet AGL
broken clouds at 1500 feet AGL
Weather: -RA  (light rain)

METAR text: SABE 180200Z VRB02KT 9000 SCT005 BKN008 14/13 Q1014 TEMPO 1500 TSRA BKN005 OVC015 FEW050CB
Conditions at: SABE (AEROPARQUE(CIV/M, AR) observed 0200 UTC 18 June 2019
Temperature: 14.0°C (57°F)
Dewpoint: 13.0°C (55°F) [RH = 94%]
Pressure (altimeter): 29.94 inches Hg (1014.0 mb)
Winds: variable direction winds at 2 MPH (2 knots; 1.0 m/s)
Visibility: 6 miles ( 9 km)
Ceiling: 800 feet AGL
Clouds: scattered clouds at 500 feet AGL
broken clouds at 800 feet AGL
Weather: no significant weather observed at this time

METAR text: SABE 180127Z 35002KT 9999 BKN007 BKN012 14/13 Q1014 TEMPO 1500 TSRA BKN005 OVC015 FEW050CB
Conditions at: SABE (AEROPARQUE(CIV/M, AR) observed 0127 UTC 18 June 2019
Temperature: 14.0°C (57°F)
Dewpoint: 13.0°C (55°F) [RH = 94%]
Pressure (altimeter): 29.94 inches Hg (1014.0 mb)
Winds: from the N (350 degrees) at 2 MPH (2 knots; 1.0 m/s)
Visibility: 6 or more miles (10+ km)
Ceiling: 700 feet AGL
Clouds: broken clouds at 700 feet AGL
broken clouds at 1200 feet AGL
Weather: no significant weather observed at this time

METAR text: SABE 180100Z 31003KT 280V360 9999 FEW008 BKN020 BKN080 14/13 Q1015 TEMPO 1500 TSRA BKN005 OVC015 FEW050CB
Conditions at: SABE (AEROPARQUE(CIV/M, AR) observed 0100 UTC 18 June 2019
Temperature: 14.0°C (57°F)
Dewpoint: 13.0°C (55°F) [RH = 94%]
Pressure (altimeter): 29.97 inches Hg (1015.0 mb)
Winds: from the NW (310 degrees) at 3 MPH (3 knots; 1.5 m/s)
Visibility: 6 or more miles (10+ km)
Ceiling: 2000 feet AGL
Clouds: few clouds at 800 feet AGL
broken clouds at 2000 feet AGL
broken clouds at 8000 feet AGL
Weather: no significant weather observed at this time

METAR text: SABE 180000Z 31004KT 280V340 8000 -RA SCT006 BKN020 14/14 Q1015 TEMPO 1500 TSRA BKN005 OVC015 FEW050CB
Conditions at: SABE (AEROPARQUE(CIV/M, AR) observed 0000 UTC 18 June 2019
Temperature: 14.0°C (57°F)
Dewpoint: 14.0°C (57°F) [RH = 100%]
Pressure (altimeter): 29.97 inches Hg (1015.0 mb)
Winds: from the NW (310 degrees) at 5 MPH (4 knots; 2.1 m/s)
Visibility: 5 miles ( 8 km)
Ceiling: 2000 feet AGL
Clouds: scattered clouds at 600 feet AGL
broken clouds at 2000 feet AGL
Weather: -RA  (light rain)

METAR text: SABE 172305Z 31003KT 5000 -RA BKN007 SCT070 14/14 Q1016 NOSIG
Conditions at: SABE (AEROPARQUE(CIV/M, AR) observed 2305 UTC 17 June 2019
Temperature: 14.0°C (57°F)
Dewpoint: 14.0°C (57°F) [RH = 100%]
Pressure (altimeter): 30.00 inches Hg (1016.0 mb)
Winds: from the NW (310 degrees) at 3 MPH (3 knots; 1.5 m/s)
Visibility: 3 miles ( 5 km)
Ceiling: 700 feet AGL
Clouds: broken clouds at 700 feet AGL
scattered clouds at 7000 feet AGL
Weather: -RA  (light rain)

METAR text: SABE 172300Z 31003KT 9000 -RA BKN007 SCT070 14/14 Q1016 TEMPO 1500 TSRA BKN005 OVC015 FEW050CB
Conditions at: SABE (AEROPARQUE(CIV/M, AR) observed 2300 UTC 17 June 2019
Temperature: 14.0°C (57°F)
Dewpoint: 14.0°C (57°F) [RH = 100%]
Pressure (altimeter): 30.00 inches Hg (1016.0 mb)
Winds: from the NW (310 degrees) at 3 MPH (3 knots; 1.5 m/s)
Visibility: 6 miles ( 9 km)
Ceiling: 700 feet AGL
Clouds: broken clouds at 700 feet AGL
scattered clouds at 7000 feet AGL
Weather: -RA  (light rain)

METAR text: SABE 172230Z 34004KT 9999 BKN008 BKN020 14/14 Q1015 NOSIG
Conditions at: SABE (AEROPARQUE(CIV/M, AR) observed 2230 UTC 17 June 2019
Temperature: 14.0°C (57°F)
Dewpoint: 14.0°C (57°F) [RH = 100%]
Pressure (altimeter): 29.97 inches Hg (1015.0 mb)
Winds: from the NNW (340 degrees) at 5 MPH (4 knots; 2.1 m/s)
Visibility: 6 or more miles (10+ km)
Ceiling: 800 feet AGL
Clouds: broken clouds at 800 feet AGL
broken clouds at 2000 feet AGL
Weather: no significant weather observed at this time

METAR text: SABE 172200Z 02004KT 300V050 5000 -RA SCT007 BKN020 BKN060 14/13 Q1015 NOSIG
Conditions at: SABE (AEROPARQUE(CIV/M, AR) observed 2200 UTC 17 June 2019
Temperature: 14.0°C (57°F)
Dewpoint: 13.0°C (55°F) [RH = 94%]
Pressure (altimeter): 29.97 inches Hg (1015.0 mb)
Winds: from the NNE (20 degrees) at 5 MPH (4 knots; 2.1 m/s)
Visibility: 3 miles ( 5 km)
Ceiling: 2000 feet AGL
Clouds: scattered clouds at 700 feet AGL
broken clouds at 2000 feet AGL
broken clouds at 6000 feet AGL
Weather: -RA  (light rain)

METAR text: SABE 172145Z 33004KT 1500 RA BKN007 SCT023 14/13 Q1015 NOSIG
Conditions at: SABE (AEROPARQUE(CIV/M, AR) observed 2145 UTC 17 June 2019
Temperature: 14.0°C (57°F)
Dewpoint: 13.0°C (55°F) [RH = 94%]
Pressure (altimeter): 29.97 inches Hg (1015.0 mb)
Winds: from the NNW (330 degrees) at 5 MPH (4 knots; 2.1 m/s)
Visibility: 0.93 miles (1.50 km)
Ceiling: 700 feet AGL
Clouds: broken clouds at 700 feet AGL
scattered clouds at 2300 feet AGL
Weather: RA  (moderate rain)

METAR text: SABE 172133Z 36004KT 3000 -RA SCT008 BKN023 14/13 Q1015 NOSIG
Conditions at: SABE (AEROPARQUE(CIV/M, AR) observed 2133 UTC 17 June 2019
Temperature: 14.0°C (57°F)
Dewpoint: 13.0°C (55°F) [RH = 94%]
Pressure (altimeter): 29.97 inches Hg (1015.0 mb)
Winds: from the N (360 degrees) at 5 MPH (4 knots; 2.1 m/s)
Visibility: 1.86 miles (2.99 km)
Ceiling: 2300 feet AGL
Clouds: scattered clouds at 800 feet AGL
broken clouds at 2300 feet AGL
Weather: -RA  (light rain)

METAR text: SABE 172100Z 33004KT 9999 SCT008 BKN012 BKN070 14/13 Q1016 NOSIG
Conditions at: SABE (AEROPARQUE(CIV/M, AR) observed 2100 UTC 17 June 2019
Temperature: 14.0°C (57°F)
Dewpoint: 13.0°C (55°F) [RH = 94%]
Pressure (altimeter): 30.00 inches Hg (1016.0 mb)
Winds: from the NNW (330 degrees) at 5 MPH (4 knots; 2.1 m/s)
Visibility: 6 or more miles (10+ km)
Ceiling: 1200 feet AGL
Clouds: scattered clouds at 800 feet AGL
broken clouds at 1200 feet AGL
broken clouds at 7000 feet AGL
Weather: no significant weather observed at this time

METAR text: SABE 172023Z 32004KT 8000 -RA SCT006 OVC013 14/14 Q1016 NOSIG
Conditions at: SABE (AEROPARQUE(CIV/M, AR) observed 2023 UTC 17 June 2019
Temperature: 14.0°C (57°F)
Dewpoint: 14.0°C (57°F) [RH = 100%]
Pressure (altimeter): 30.00 inches Hg (1016.0 mb)
Winds: from the NW (320 degrees) at 5 MPH (4 knots; 2.1 m/s)
Visibility: 5 miles ( 8 km)
Ceiling: 1300 feet AGL
Clouds: scattered clouds at 600 feet AGL
overcast cloud deck at 1300 feet AGL
Weather: -RA  (light rain)

METAR text: SABE 172000Z 34002KT 3000 RA SCT006 OVC018 14/14 Q1016 NOSIG
Conditions at: SABE (AEROPARQUE(CIV/M, AR) observed 2000 UTC 17 June 2019
Temperature: 14.0°C (57°F)
Dewpoint: 14.0°C (57°F) [RH = 100%]
Pressure (altimeter): 30.00 inches Hg (1016.0 mb)
Winds: from the NNW (340 degrees) at 2 MPH (2 knots; 1.0 m/s)
Visibility: 1.86 miles (2.99 km)
Ceiling: 1800 feet AGL
Clouds: scattered clouds at 600 feet AGL
overcast cloud deck at 1800 feet AGL
Weather: RA  (moderate rain)

METAR text: SABE 171941Z 35002KT 3000 RA SCT004 OVC018 14/14 Q1016 NOSIG
Conditions at: SABE (AEROPARQUE(CIV/M, AR) observed 1941 UTC 17 June 2019
Temperature: 14.0°C (57°F)
Dewpoint: 14.0°C (57°F) [RH = 100%]
Pressure (altimeter): 30.00 inches Hg (1016.0 mb)
Winds: from the N (350 degrees) at 2 MPH (2 knots; 1.0 m/s)
Visibility: 1.86 miles (2.99 km)
Ceiling: 1800 feet AGL
Clouds: scattered clouds at 400 feet AGL
overcast cloud deck at 1800 feet AGL
Weather: RA  (moderate rain)

METAR text: SABE 171900Z 30007KT 1300 R13/1700 RA OVC006 14/14 Q1016 TEMPO 1500 RA
Conditions at: SABE (AEROPARQUE(CIV/M, AR) observed 1900 UTC 17 June 2019
Temperature: 14.0°C (57°F)
Dewpoint: 14.0°C (57°F) [RH = 100%]
Pressure (altimeter): 30.00 inches Hg (1016.0 mb)
Winds: from the WNW (300 degrees) at 8 MPH (7 knots; 3.6 m/s)
Visibility: 0.81 miles (1.30 km)
Ceiling: 600 feet AGL
Clouds: overcast cloud deck at 600 feet AGL
Weather: RA  (moderate rain)

METAR text: SABE 171826Z 29004KT 1500 RA SCT006 OVC012 15/14 Q1016 TEMPO 1500 RA
Conditions at: SABE (AEROPARQUE(CIV/M, AR) observed 1826 UTC 17 June 2019
Temperature: 15.0°C (59°F)
Dewpoint: 14.0°C (57°F) [RH = 94%]
Pressure (altimeter): 30.00 inches Hg (1016.0 mb)
Winds: from the WNW (290 degrees) at 5 MPH (4 knots; 2.1 m/s)
Visibility: 0.93 miles (1.50 km)
Ceiling: 1200 feet AGL
Clouds: scattered clouds at 600 feet AGL
overcast cloud deck at 1200 feet AGL
Weather: RA  (moderate rain)

METAR text: SABE 171800Z 28005KT 2500 RA SCT006 OVC012 15/15 Q1016 TEMPO 1500 RA
Conditions at: SABE (AEROPARQUE(CIV/M, AR) observed 1800 UTC 17 June 2019
Temperature: 15.0°C (59°F)
Dewpoint: 15.0°C (59°F) [RH = 100%]
Pressure (altimeter): 30.00 inches Hg (1016.0 mb)
Winds: from the W (280 degrees) at 6 MPH (5 knots; 2.6 m/s)
Visibility: 1.55 miles (2.49 km)
Ceiling: 1200 feet AGL
Clouds: scattered clouds at 600 feet AGL
overcast cloud deck at 1200 feet AGL
Weather: RA  (moderate rain)

METAR text: SABE 171745Z 28005KT 3000 RA SCT007 OVC012 15/15 Q1016 NOSIG
Conditions at: SABE (AEROPARQUE(CIV/M, AR) observed 1745 UTC 17 June 2019
Temperature: 15.0°C (59°F)
Dewpoint: 15.0°C (59°F) [RH = 100%]
Pressure (altimeter): 30.00 inches Hg (1016.0 mb)
Winds: from the W (280 degrees) at 6 MPH (5 knots; 2.6 m/s)
Visibility: 1.86 miles (2.99 km)
Ceiling: 1200 feet AGL
Clouds: scattered clouds at 700 feet AGL
overcast cloud deck at 1200 feet AGL
Weather: RA  (moderate rain)

METAR text: SABE 171729Z 32007KT 6000 RA SCT006 OVC012 15/15 Q1017 NOSIG
Conditions at: SABE (AEROPARQUE(CIV/M, AR) observed 1729 UTC 17 June 2019
Temperature: 15.0°C (59°F)
Dewpoint: 15.0°C (59°F) [RH = 100%]
Pressure (altimeter): 30.03 inches Hg (1017.0 mb)
Winds: from the NW (320 degrees) at 8 MPH (7 knots; 3.6 m/s)
Visibility: 4 miles ( 6 km)
Ceiling: 1200 feet AGL
Clouds: scattered clouds at 600 feet AGL
overcast cloud deck at 1200 feet AGL
Weather: RA  (moderate rain)

METAR text: SABE 171700Z 32007KT 1300 R13/1700 RA SCT006 OVC012 15/15 Q1017 NOSIG
Conditions at: SABE (AEROPARQUE(CIV/M, AR) observed 1700 UTC 17 June 2019
Temperature: 15.0°C (59°F)
Dewpoint: 15.0°C (59°F) [RH = 100%]
Pressure (altimeter): 30.03 inches Hg (1017.0 mb)
Winds: from the NW (320 degrees) at 8 MPH (7 knots; 3.6 m/s)
Visibility: 0.81 miles (1.30 km)
Ceiling: 1200 feet AGL
Clouds: scattered clouds at 600 feet AGL
overcast cloud deck at 1200 feet AGL
Weather: RA  (moderate rain)

METAR text: SABE 171625Z 30005KT 3000 DZRA BKN005 OVC009 16/15 Q1017 NOSIG
Conditions at: SABE (AEROPARQUE(CIV/M, AR) observed 1625 UTC 17 June 2019
Temperature: 16.0°C (61°F)
Dewpoint: 15.0°C (59°F) [RH = 94%]
Pressure (altimeter): 30.03 inches Hg (1017.0 mb)
Winds: from the WNW (300 degrees) at 6 MPH (5 knots; 2.6 m/s)
Visibility: 1.86 miles (2.99 km)
Ceiling: 500 feet AGL
Clouds: broken clouds at 500 feet AGL
overcast cloud deck at 900 feet AGL
Weather: DZ RA  (moderate drizzle, moderate rain)

METAR text: SABE 171611Z 33007KT 0900 R13/1200 DZRA SCT004 OVC006 16/16 Q1017 NOSIG
Conditions at: SABE (AEROPARQUE(CIV/M, AR) observed 1611 UTC 17 June 2019
Temperature: 16.0°C (61°F)
Dewpoint: 16.0°C (61°F) [RH = 100%]
Pressure (altimeter): 30.03 inches Hg (1017.0 mb)
Winds: from the NNW (330 degrees) at 8 MPH (7 knots; 3.6 m/s)
Visibility: 0.56 miles (0.90 km)
Ceiling: 600 feet AGL
Clouds: scattered clouds at 400 feet AGL
overcast cloud deck at 600 feet AGL
Weather: RA DZ  (moderate rain, moderate drizzle)

METAR text: SABE 171600Z 33007KT 2000 -DZRA SCT004 OVC006 16/15 Q1018 NOSIG
Conditions at: SABE (AEROPARQUE(CIV/M, AR) observed 1600 UTC 17 June 2019
Temperature: 16.0°C (61°F)
Dewpoint: 15.0°C (59°F) [RH = 94%]
Pressure (altimeter): 30.06 inches Hg (1018.0 mb)
Winds: from the NNW (330 degrees) at 8 MPH (7 knots; 3.6 m/s)
Visibility: 1.24 miles (2.00 km)
Ceiling: 600 feet AGL
Clouds: scattered clouds at 400 feet AGL
overcast cloud deck at 600 feet AGL
Weather: -DZ -RA  (light drizzle, light rain)

METAR text: SABE 171511Z 34006KT 2000 RA OVC004 16/16 Q1018 NOSIG
Conditions at: SABE (AEROPARQUE(CIV/M, AR) observed 1511 UTC 17 June 2019
Temperature: 16.0°C (61°F)
Dewpoint: 16.0°C (61°F) [RH = 100%]
Pressure (altimeter): 30.06 inches Hg (1018.0 mb)
Winds: from the NNW (340 degrees) at 7 MPH (6 knots; 3.1 m/s)
Visibility: 1.24 miles (2.00 km)
Ceiling: 400 feet AGL
Clouds: overcast cloud deck at 400 feet AGL
Weather: RA  (moderate rain)

METAR text: SABE 171500Z 34006KT 8000 -DZ SCT004 OVC009 16/16 Q1018 NOSIG
Conditions at: SABE (AEROPARQUE(CIV/M, AR) observed 1500 UTC 17 June 2019
Temperature: 16.0°C (61°F)
Dewpoint: 16.0°C (61°F) [RH = 100%]
Pressure (altimeter): 30.06 inches Hg (1018.0 mb)
Winds: from the NNW (340 degrees) at 7 MPH (6 knots; 3.1 m/s)
Visibility: 5 miles ( 8 km)
Ceiling: 900 feet AGL
Clouds: scattered clouds at 400 feet AGL
overcast cloud deck at 900 feet AGL
Weather: -DZ  (light drizzle)

METAR text: SABE 171415Z 34007KT 8000 OVC005 16/16 Q1018 NOSIG
Conditions at: SABE (AEROPARQUE(CIV/M, AR) observed 1415 UTC 17 June 2019
Temperature: 16.0°C (61°F)
Dewpoint: 16.0°C (61°F) [RH = 100%]
Pressure (altimeter): 30.06 inches Hg (1018.0 mb)
Winds: from the NNW (340 degrees) at 8 MPH (7 knots; 3.6 m/s)
Visibility: 5 miles ( 8 km)
Ceiling: 500 feet AGL
Clouds: overcast cloud deck at 500 feet AGL
Weather: no significant weather observed at this time

METAR text: SABE 171400Z 34005KT 4000 -DZ BR OVC003 16/16 Q1019 NOSIG
Conditions at: SABE (AEROPARQUE(CIV/M, AR) observed 1400 UTC 17 June 2019
Temperature: 16.0°C (61°F)
Dewpoint: 16.0°C (61°F) [RH = 100%]
Pressure (altimeter): 30.09 inches Hg (1019.0 mb)
Winds: from the NNW (340 degrees) at 6 MPH (5 knots; 2.6 m/s)
Visibility: 2.49 miles (4.01 km)
Ceiling: 300 feet AGL
Clouds: overcast cloud deck at 300 feet AGL
Weather: -DZ BR  (light drizzle, mist)

METAR text: SABE 171342Z 35005KT 3000 -DZ BR BKN002 OVC006 16/16 Q1019 NOSIG
Conditions at: SABE (AEROPARQUE(CIV/M, AR) observed 1342 UTC 17 June 2019
Temperature: 16.0°C (61°F)
Dewpoint: 16.0°C (61°F) [RH = 100%]
Pressure (altimeter): 30.09 inches Hg (1019.0 mb)
Winds: from the N (350 degrees) at 6 MPH (5 knots; 2.6 m/s)
Visibility: 1.86 miles (2.99 km)
Ceiling: 200 feet AGL
Clouds: broken clouds at 200 feet AGL
overcast cloud deck at 600 feet AGL
Weather: -DZ BR  (light drizzle, mist)

METAR text: SABE 171300Z 01005KT 1400 R13/1700 -DZ BR SCT001 OVC002 17/16 Q1019 NOSIG
Conditions at: SABE (AEROPARQUE(CIV/M, AR) observed 1300 UTC 17 June 2019
Temperature: 17.0°C (63°F)
Dewpoint: 16.0°C (61°F) [RH = 94%]
Pressure (altimeter): 30.09 inches Hg (1019.0 mb)
Winds: from the N (10 degrees) at 6 MPH (5 knots; 2.6 m/s)
Visibility: 0.87 miles (1.40 km)
Ceiling: 200 feet AGL
Clouds: scattered clouds at 100 feet AGL
overcast cloud deck at 200 feet AGL
Weather: -DZ BR  (light drizzle, mist)

METAR text: SABE 171200Z 34005KT 1000 R13/1700 DZ BR SCT001 OVC002 16/16 Q1019 NOSIG
Conditions at: SABE (AEROPARQUE(CIV/M, AR) observed 1200 UTC 17 June 2019
Temperature: 16.0°C (61°F)
Dewpoint: 16.0°C (61°F) [RH = 100%]
Pressure (altimeter): 30.09 inches Hg (1019.0 mb)
Winds: from the NNW (340 degrees) at 6 MPH (5 knots; 2.6 m/s)
Visibility: 0.62 miles (1.00 km)
Ceiling: 200 feet AGL
Clouds: scattered clouds at 100 feet AGL
overcast cloud deck at 200 feet AGL
Weather: DZ BR  (moderate drizzle, mist)

METAR text: SABE 171109Z 08007KT 1400 R13/P2000 DZ SCT001 OVC002 17/17 Q1019 NOSIG
Conditions at: SABE (AEROPARQUE(CIV/M, AR) observed 1109 UTC 17 June 2019
Temperature: 17.0°C (63°F)
Dewpoint: 17.0°C (63°F) [RH = 100%]
Pressure (altimeter): 30.09 inches Hg (1019.0 mb)
Winds: from the E (80 degrees) at 8 MPH (7 knots; 3.6 m/s)
Visibility: 0.87 miles (1.40 km)
Ceiling: 200 feet AGL
Clouds: scattered clouds at 100 feet AGL
overcast cloud deck at 200 feet AGL
Weather: DZ  (moderate drizzle)

METAR text: SABE 171100Z 07007KT 2000 DZ SCT001 OVC002 17/17 Q1019 NOSIG
Conditions at: SABE (AEROPARQUE(CIV/M, AR) observed 1100 UTC 17 June 2019
Temperature: 17.0°C (63°F)
Dewpoint: 17.0°C (63°F) [RH = 100%]
Pressure (altimeter): 30.09 inches Hg (1019.0 mb)
Winds: from the ENE (70 degrees) at 8 MPH (7 knots; 3.6 m/s)
Visibility: 1.24 miles (2.00 km)
Ceiling: 200 feet AGL
Clouds: scattered clouds at 100 feet AGL
overcast cloud deck at 200 feet AGL
Weather: DZ  (moderate drizzle)

METAR text: SABE 171052Z 07007KT 2000 DZ SCT001 OVC002 17/17 Q1019 NOSIG
Conditions at: SABE (AEROPARQUE(CIV/M, AR) observed 1052 UTC 17 June 2019
Temperature: 17.0°C (63°F)
Dewpoint: 17.0°C (63°F) [RH = 100%]
Pressure (altimeter): 30.09 inches Hg (1019.0 mb)
Winds: from the ENE (70 degrees) at 8 MPH (7 knots; 3.6 m/s)
Visibility: 1.24 miles (2.00 km)
Ceiling: 200 feet AGL
Clouds: scattered clouds at 100 feet AGL
overcast cloud deck at 200 feet AGL
Weather: DZ  (moderate drizzle)

METAR text: SABE 171037Z 09008KT 8000 -DZ SCT001 OVC002 17/17 Q1019 NOSIG
Conditions at: SABE (AEROPARQUE(CIV/M, AR) observed 1037 UTC 17 June 2019
Temperature: 17.0°C (63°F)
Dewpoint: 17.0°C (63°F) [RH = 100%]
Pressure (altimeter): 30.09 inches Hg (1019.0 mb)
Winds: from the E (90 degrees) at 9 MPH (8 knots; 4.1 m/s)
Visibility: 5 miles ( 8 km)
Ceiling: 200 feet AGL
Clouds: scattered clouds at 100 feet AGL
overcast cloud deck at 200 feet AGL
Weather: -DZ  (light drizzle)

METAR text: SABE 171000Z 10011KT 4000 -DZ OVC002 17/17 Q1019 NOISG
Conditions at: SABE (AEROPARQUE(CIV/M, AR) observed 1000 UTC 17 June 2019
Temperature: 17.0°C (63°F)
Dewpoint: 17.0°C (63°F) [RH = 100%]
Pressure (altimeter): 30.09 inches Hg (1019.0 mb)
Winds: from the E (100 degrees) at 13 MPH (11 knots; 5.7 m/s)
Visibility: 2.49 miles (4.01 km)
Ceiling: 200 feet AGL
Clouds: overcast cloud deck at 200 feet AGL
Weather: -DZ SG  (light drizzle, moderate snow grains)

METAR text: SABE 170915Z 11012KT 6000 DZ OVC002 17/17 Q1019 NOSIG
Conditions at: SABE (AEROPARQUE(CIV/M, AR) observed 0915 UTC 17 June 2019
Temperature: 17.0°C (63°F)
Dewpoint: 17.0°C (63°F) [RH = 100%]
Pressure (altimeter): 30.09 inches Hg (1019.0 mb)
Winds: from the ESE (110 degrees) at 14 MPH (12 knots; 6.2 m/s)
Visibility: 4 miles ( 6 km)
Ceiling: 200 feet AGL
Clouds: overcast cloud deck at 200 feet AGL
Weather: DZ  (moderate drizzle)

METAR text: SABE 170900Z 10012KT 8000 OVC003 17/17 Q1019 RERA NOSIG
Conditions at: SABE (AEROPARQUE(CIV/M, AR) observed 0900 UTC 17 June 2019
Temperature: 17.0°C (63°F)
Dewpoint: 17.0°C (63°F) [RH = 100%]
Pressure (altimeter): 30.09 inches Hg (1019.0 mb)
Winds: from the E (100 degrees) at 14 MPH (12 knots; 6.2 m/s)
Visibility: 5 miles ( 8 km)
Ceiling: 300 feet AGL
Clouds: overcast cloud deck at 300 feet AGL
Weather: no significant weather observed at this time

METAR text: SABE 170815Z 10012KT 4500 -RA OVC003 17/16 Q1020
Conditions at: SABE (AEROPARQUE(CIV/M, AR) observed 0815 UTC 17 June 2019
Temperature: 17.0°C (63°F)
Dewpoint: 16.0°C (61°F) [RH = 94%]
Pressure (altimeter): 30.12 inches Hg (1020.0 mb)
Winds: from the E (100 degrees) at 14 MPH (12 knots; 6.2 m/s)
Visibility: 2.80 miles (4.51 km)
Ceiling: 300 feet AGL
Clouds: overcast cloud deck at 300 feet AGL
Weather: -RA  (light rain)

METAR text: SABE 170800Z 10012KT 2500 -RA OVC003 17/16 Q1020 NOSIG
Conditions at: SABE (AEROPARQUE(CIV/M, AR) observed 0800 UTC 17 June 2019
Temperature: 17.0°C (63°F)
Dewpoint: 16.0°C (61°F) [RH = 94%]
Pressure (altimeter): 30.12 inches Hg (1020.0 mb)
Winds: from the E (100 degrees) at 14 MPH (12 knots; 6.2 m/s)
Visibility: 1.55 miles (2.49 km)
Ceiling: 300 feet AGL
Clouds: overcast cloud deck at 300 feet AGL
Weather: -RA  (light rain)

METAR text: SABE 170735Z 11012KT 9999 OVC003 17/16 Q1020 RERA
Conditions at: SABE (AEROPARQUE(CIV/M, AR) observed 0735 UTC 17 June 2019
Temperature: 17.0°C (63°F)
Dewpoint: 16.0°C (61°F) [RH = 94%]
Pressure (altimeter): 30.12 inches Hg (1020.0 mb)
Winds: from the ESE (110 degrees) at 14 MPH (12 knots; 6.2 m/s)
Visibility: 6 or more miles (10+ km)
Ceiling: 300 feet AGL
Clouds: overcast cloud deck at 300 feet AGL
Weather: no significant weather observed at this time

METAR text: SABE 170725Z 11012KT 5000 -RA OVC003 17/16 Q1020
Conditions at: SABE (AEROPARQUE(CIV/M, AR) observed 0725 UTC 17 June 2019
Temperature: 17.0°C (63°F)
Dewpoint: 16.0°C (61°F) [RH = 94%]
Pressure (altimeter): 30.12 inches Hg (1020.0 mb)
Winds: from the ESE (110 degrees) at 14 MPH (12 knots; 6.2 m/s)
Visibility: 3 miles ( 5 km)
Ceiling: 300 feet AGL
Clouds: overcast cloud deck at 300 feet AGL
Weather: -RA  (light rain)

METAR text: SABE 170700Z 11012KT 2500 -RA OVC003 17/16 Q1020 NOSIG
Conditions at: SABE (AEROPARQUE(CIV/M, AR) observed 0700 UTC 17 June 2019
Temperature: 17.0°C (63°F)
Dewpoint: 16.0°C (61°F) [RH = 94%]
Pressure (altimeter): 30.12 inches Hg (1020.0 mb)
Winds: from the ESE (110 degrees) at 14 MPH (12 knots; 6.2 m/s)
Visibility: 1.55 miles (2.49 km)
Ceiling: 300 feet AGL
Clouds: overcast cloud deck at 300 feet AGL
Weather: -RA  (light rain)

METAR text: SABE 170600Z 12012KT 9999 OVC004 17/16 Q1021 NOSIG
Conditions at: SABE (AEROPARQUE(CIV/M, AR) observed 0600 UTC 17 June 2019
Temperature: 17.0°C (63°F)
Dewpoint: 16.0°C (61°F) [RH = 94%]
Pressure (altimeter): 30.15 inches Hg (1021.0 mb)
Winds: from the ESE (120 degrees) at 14 MPH (12 knots; 6.2 m/s)
Visibility: 6 or more miles (10+ km)
Ceiling: 400 feet AGL
Clouds: overcast cloud deck at 400 feet AGL
Weather: no significant weather observed at this time

METAR text: SABE 170500Z 10012KT 9999 OVC004 17/16 Q1021 NOSIG
Conditions at: SABE (AEROPARQUE(CIV/M, AR) observed 0500 UTC 17 June 2019
Temperature: 17.0°C (63°F)
Dewpoint: 16.0°C (61°F) [RH = 94%]
Pressure (altimeter): 30.15 inches Hg (1021.0 mb)
Winds: from the E (100 degrees) at 14 MPH (12 knots; 6.2 m/s)
Visibility: 6 or more miles (10+ km)
Ceiling: 400 feet AGL
Clouds: overcast cloud deck at 400 feet AGL
Weather: no significant weather observed at this time

METAR text: SABE 170400Z 11012KT 9999 OVC004 16/16 Q1022 NOSIG
Conditions at: SABE (AEROPARQUE(CIV/M, AR) observed 0400 UTC 17 June 2019
Temperature: 16.0°C (61°F)
Dewpoint: 16.0°C (61°F) [RH = 100%]
Pressure (altimeter): 30.18 inches Hg (1022.0 mb)
Winds: from the ESE (110 degrees) at 14 MPH (12 knots; 6.2 m/s)
Visibility: 6 or more miles (10+ km)
Ceiling: 400 feet AGL
Clouds: overcast cloud deck at 400 feet AGL
Weather: no significant weather observed at this time

METAR text: SABE 170300Z 11011KT 9999 OVC004 17/16 Q1021 NOSIG
Conditions at: SABE (AEROPARQUE(CIV/M, AR) observed 0300 UTC 17 June 2019
Temperature: 17.0°C (63°F)
Dewpoint: 16.0°C (61°F) [RH = 94%]
Pressure (altimeter): 30.15 inches Hg (1021.0 mb)
Winds: from the ESE (110 degrees) at 13 MPH (11 knots; 5.7 m/s)
Visibility: 6 or more miles (10+ km)
Ceiling: 400 feet AGL
Clouds: overcast cloud deck at 400 feet AGL
Weather: no significant weather observed at this time

METAR text: SABE 170225Z 11012KT 8000 OVC003 17/16 Q1021 REDZ
Conditions at: SABE (AEROPARQUE(CIV/M, AR) observed 0225 UTC 17 June 2019
Temperature: 17.0°C (63°F)
Dewpoint: 16.0°C (61°F) [RH = 94%]
Pressure (altimeter): 30.15 inches Hg (1021.0 mb)
Winds: from the ESE (110 degrees) at 14 MPH (12 knots; 6.2 m/s)
Visibility: 5 miles ( 8 km)
Ceiling: 300 feet AGL
Clouds: overcast cloud deck at 300 feet AGL
Weather: no significant weather observed at this time

METAR text: SABE 170200Z 11012KT 6000 -DZ OVC003 17/16 Q1021 NOSIG
Conditions at: SABE (AEROPARQUE(CIV/M, AR) observed 0200 UTC 17 June 2019
Temperature: 17.0°C (63°F)
Dewpoint: 16.0°C (61°F) [RH = 94%]
Pressure (altimeter): 30.15 inches Hg (1021.0 mb)
Winds: from the ESE (110 degrees) at 14 MPH (12 knots; 6.2 m/s)
Visibility: 4 miles ( 6 km)
Ceiling: 300 feet AGL
Clouds: overcast cloud deck at 300 feet AGL
Weather: -DZ  (light drizzle)

METAR text: SABE 170120Z 12012KT 3500 -DZ OVC004 17/16 Q1021
Conditions at: SABE (AEROPARQUE(CIV/M, AR) observed 0120 UTC 17 June 2019
Temperature: 17.0°C (63°F)
Dewpoint: 16.0°C (61°F) [RH = 94%]
Pressure (altimeter): 30.15 inches Hg (1021.0 mb)
Winds: from the ESE (120 degrees) at 14 MPH (12 knots; 6.2 m/s)
Visibility: 2.17 miles (3.49 km)
Ceiling: 400 feet AGL
Clouds: overcast cloud deck at 400 feet AGL
Weather: -DZ  (light drizzle)

METAR text: SABE 170100Z 12012KT 6000 -DZ OVC004 17/16 Q1021 NOSIG
Conditions at: SABE (AEROPARQUE(CIV/M, AR) observed 0100 UTC 17 June 2019
Temperature: 17.0°C (63°F)
Dewpoint: 16.0°C (61°F) [RH = 94%]
Pressure (altimeter): 30.15 inches Hg (1021.0 mb)
Winds: from the ESE (120 degrees) at 14 MPH (12 knots; 6.2 m/s)
Visibility: 4 miles ( 6 km)
Ceiling: 400 feet AGL
Clouds: overcast cloud deck at 400 feet AGL
Weather: -DZ  (light drizzle)

METAR text: SABE 170000Z 12012KT 8000 OVC004 17/16 Q1021 NOSIG
Conditions at: SABE (AEROPARQUE(CIV/M, AR) observed 0000 UTC 17 June 2019
Temperature: 17.0°C (63°F)
Dewpoint: 16.0°C (61°F) [RH = 94%]
Pressure (altimeter): 30.15 inches Hg (1021.0 mb)
Winds: from the ESE (120 degrees) at 14 MPH (12 knots; 6.2 m/s)
Visibility: 5 miles ( 8 km)
Ceiling: 400 feet AGL
Clouds: overcast cloud deck at 400 feet AGL
Weather: no significant weather observed at this time

METAR text: SABE 162300Z 12012KT 8000 OVC004 16/16 Q1020 NOSIG
Conditions at: SABE (AEROPARQUE(CIV/M, AR) observed 2300 UTC 16 June 2019
Temperature: 16.0°C (61°F)
Dewpoint: 16.0°C (61°F) [RH = 100%]
Pressure (altimeter): 30.12 inches Hg (1020.0 mb)
Winds: from the ESE (120 degrees) at 14 MPH (12 knots; 6.2 m/s)
Visibility: 5 miles ( 8 km)
Ceiling: 400 feet AGL
Clouds: overcast cloud deck at 400 feet AGL
Weather: no significant weather observed at this time

Forecast for: SABE (AEROPARQUE(CIV/M, AR)
Text: TAF SABE 180500Z 1806/1906 32005KT 8000 -RADZ SCT005 BKN030 TX15/1818Z TN11/1811Z
Forecast period: 0600 to 1300 UTC 18 June 2019
Forecast type: FROM: standard forecast or significant change
Winds: from the NW (320 degrees) at 6 MPH (5 knots; 2.6 m/s)
Visibility: 5 miles (8 km)
Ceiling: 3000 feet AGL
Clouds: scattered clouds at 500 feet AGL
broken clouds at 3000 feet AGL
Weather: -RA -DZ  (light rain, light drizzle)
Text: TEMPO 1806/1811 VRB10KT 1500 TSRA BR BKN005 OVC020 FEW040CB
Forecast period: 0600 to 1100 UTC 18 June 2019
Forecast type: TEMPORARY: The following changes expected for less than half the time period
Winds: variable direction winds at 12 MPH (10 knots; 5.1 m/s)
Visibility: 0.93 miles (1.50 km)
Ceiling: 500 feet AGL
Clouds: broken clouds at 500 feet AGL
overcast cloud deck at 2000 feet AGL
few clouds at 4000 feet AGL
Weather: TSRA BR  (rain associated with thunderstorm(s), mist)
Text: BECMG 1813/1816 29015G30KT 9999 NSW BKN020
Forecast period: 1300 UTC 18 June 2019 to 0600 UTC 19 June 2019
Forecast type: BECOMING: Conditions expected to become as follows by 1600 UTC 18 June 2019
Winds: from the WNW (290 degrees) at 17 MPH (15 knots; 7.7 m/s)
gusting to 34 MPH (30 knots; 15.4 m/s)
Visibility: 6 or more miles 10+ km)
Ceiling: 2000 feet AGL
Clouds: broken clouds at 2000 feet AGL
Weather: NSW  (no significant weather)